This is the latest recevied weather packets stored in our database for station/object K7KAZ. If no packets are shown the sender has not sent any weather packets the latest 1 day(s).
| Time | Temp. | Humidity | Pressure | Rain* | Wind** | Luminosity | Snow |
|---|---|---|---|---|---|---|---|
| 1778065996 | 14.44° C | 49% | 1016.7 hPa | 0 mm | - | 0 W/m² | - |
| 1778065693 | 14.44° C | 49% | 1016.7 hPa | 0 mm | - | 0 W/m² | - |
| 1778065390 | 15° C | 48% | 1016.8 hPa | 0 mm | - | 0 W/m² | - |
| 1778064481 | 15° C | 48% | 1016.5 hPa | 0 mm | - | 0 W/m² | - |
| 1778063876 | 15.56° C | 45% | 1016.5 hPa | 0 mm | - | 0 W/m² | - |
| 1778062060 | 16.11° C | 43% | 1016.2 hPa | 0 mm | - | 0 W/m² | - |
| 1778061456 | 16.11° C | 43% | 1016.3 hPa | 0 mm | - | 0 W/m² | - |
| 1778060849 | 16.11° C | 44% | 1016.3 hPa | 0 mm | - | 0 W/m² | - |
| 1778060246 | 15.56° C | 45% | 1016.5 hPa | 0 mm | - | 0 W/m² | - |
| 1778059338 | 15.56° C | 47% | 1016.2 hPa | 0 mm | - | 0 W/m² | - |
| 1778057824 | 16.11° C | 45% | 1016.2 hPa | 0 mm | - | 0 W/m² | - |
| 1778057217 | 16.11° C | 46% | 1016.1 hPa | 0 mm | - | 0 W/m² | - |
| 1778056610 | 16.11° C | 45% | 1016.1 hPa | 0 mm | - | 0 W/m² | - |
| 1778056308 | 16.11° C | 45% | 1015.9 hPa | 0 mm | - | 0 W/m² | - |
| 1778055398 | 17.22° C | 42% | 1016 hPa | 0 mm | - | 0 W/m² | - |
| 1778053279 | 17.78° C | 41% | 1015.9 hPa | 0 mm | - | 0 W/m² | - |
| 1778052068 | 17.78° C | 40% | 1016.1 hPa | 0 mm | - | 0 W/m² | - |
| 1778051463 | 18.33° C | 39% | 1016.1 hPa | 0 mm | - | 0 W/m² | - |
| 1778051160 | 18.33° C | 39% | 1016 hPa | 0 mm | - | 0 W/m² | - |
| 1778050857 | 18.33° C | 39% | 1015.7 hPa | 0 mm | - | 0 W/m² | - |
| 1778050555 | 18.33° C | 38% | 1015.8 hPa | 0 mm | - | 0 W/m² | - |
| 1778050251 | 18.89° C | 38% | 1015.8 hPa | 0 mm | - | 0 W/m² | - |
| 1778049948 | 18.89° C | 38% | 1015.8 hPa | 0 mm | - | 0 W/m² | - |
| 1778049342 | 18.89° C | 37% | 1015.6 hPa | 0 mm | - | 0 W/m² | - |
| 1778049039 | 18.89° C | 37% | 1015.7 hPa | 0 mm | - | 0 W/m² | - |
* Rain latest hour (hover to see other rain measurements)
** Current wind speed in m/s (hover to see current wind gust speed)